sensor_id;sensor_type;location;lat;lon;timestamp;P1;durP1;ratioP1;P2;durP2;ratioP2
61677;SDS011;47575;52.054;4.334;2022-07-01T00:00:23;39.70;;;29.80;;
61677;SDS011;47575;52.054;4.334;2022-07-01T00:02:50;37.70;;;30.03;;
61677;SDS011;47575;52.054;4.334;2022-07-01T00:05:19;40.63;;;29.90;;
61677;SDS011;47575;52.054;4.334;2022-07-01T00:07:46;40.57;;;29.40;;
61677;SDS011;47575;52.054;4.334;2022-07-01T00:10:14;37.87;;;28.97;;
61677;SDS011;47575;52.054;4.334;2022-07-01T00:12:42;37.93;;;28.27;;
61677;SDS011;47575;52.054;4.334;2022-07-01T00:15:09;38.10;;;27.97;;
61677;SDS011;47575;52.054;4.334;2022-07-01T00:17:37;37.90;;;28.17;;
61677;SDS011;47575;52.054;4.334;2022-07-01T00:20:05;41.03;;;29.70;;
61677;SDS011;47575;52.054;4.334;2022-07-01T00:22:35;39.23;;;29.20;;
61677;SDS011;47575;52.054;4.334;2022-07-01T00:25:02;41.30;;;29.63;;
61677;SDS011;47575;52.054;4.334;2022-07-01T00:27:30;40.80;;;29.80;;
61677;SDS011;47575;52.054;4.334;2022-07-01T00:29:57;39.97;;;30.03;;
61677;SDS011;47575;52.054;4.334;2022-07-01T00:32:24;42.40;;;30.33;;
61677;SDS011;47575;52.054;4.334;2022-07-01T00:34:51;45.40;;;31.67;;
61677;SDS011;47575;52.054;4.334;2022-07-01T00:37:19;39.47;;;29.67;;
61677;SDS011;47575;52.054;4.334;2022-07-01T00:39:47;42.73;;;29.70;;
61677;SDS011;47575;52.054;4.334;2022-07-01T00:42:14;40.77;;;29.97;;
61677;SDS011;47575;52.054;4.334;2022-07-01T00:44:41;41.97;;;29.13;;
61677;SDS011;47575;52.054;4.334;2022-07-01T00:47:10;39.10;;;28.83;;
61677;SDS011;47575;52.054;4.334;2022-07-01T00:49:38;42.40;;;28.37;;
61677;SDS011;47575;52.054;4.334;2022-07-01T00:52:07;44.53;;;28.60;;
61677;SDS011;47575;52.054;4.334;2022-07-01T00:54:36;40.10;;;28.03;;
61677;SDS011;47575;52.054;4.334;2022-07-01T00:57:09;42.10;;;28.63;;
61677;SDS011;47575;52.054;4.334;2022-07-01T00:59:37;40.83;;;28.47;;
61677;SDS011;47575;52.054;4.334;2022-07-01T01:02:06;36.97;;;26.73;;
61677;SDS011;47575;52.054;4.334;2022-07-01T01:04:34;43.00;;;28.33;;
61677;SDS011;47575;52.054;4.334;2022-07-01T01:07:02;39.00;;;26.60;;
61677;SDS011;47575;52.054;4.334;2022-07-01T01:09:30;36.70;;;26.17;;
61677;SDS011;47575;52.054;4.334;2022-07-01T01:11:59;39.57;;;27.53;;
61677;SDS011;47575;52.054;4.334;2022-07-01T01:14:29;42.17;;;26.37;;
61677;SDS011;47575;52.054;4.334;2022-07-01T01:16:56;40.43;;;26.83;;
61677;SDS011;47575;52.054;4.334;2022-07-01T01:19:23;37.97;;;25.97;;
61677;SDS011;47575;52.054;4.334;2022-07-01T01:21:52;35.30;;;25.23;;
61677;SDS011;47575;52.054;4.334;2022-07-01T01:24:20;34.77;;;24.30;;
61677;SDS011;47575;52.054;4.334;2022-07-01T01:26:47;32.83;;;22.80;;
61677;SDS011;47575;52.054;4.334;2022-07-01T01:29:14;40.03;;;26.93;;
61677;SDS011;47575;52.054;4.334;2022-07-01T01:31:42;34.00;;;23.83;;
61677;SDS011;47575;52.054;4.334;2022-07-01T01:34:09;32.23;;;23.23;;
61677;SDS011;47575;52.054;4.334;2022-07-01T01:36:37;32.93;;;23.07;;
61677;SDS011;47575;52.054;4.334;2022-07-01T01:39:06;29.57;;;20.57;;
61677;SDS011;47575;52.054;4.334;2022-07-01T01:41:36;38.57;;;21.57;;
61677;SDS011;47575;52.054;4.334;2022-07-01T01:44:03;27.67;;;19.80;;
61677;SDS011;47575;52.054;4.334;2022-07-01T01:46:30;27.17;;;19.47;;
61677;SDS011;47575;52.054;4.334;2022-07-01T01:48:58;27.87;;;19.10;;
61677;SDS011;47575;52.054;4.334;2022-07-01T01:51:26;24.77;;;18.07;;
61677;SDS011;47575;52.054;4.334;2022-07-01T01:53:54;26.07;;;19.07;;
61677;SDS011;47575;52.054;4.334;2022-07-01T01:56:22;25.90;;;17.90;;
61677;SDS011;47575;52.054;4.334;2022-07-01T01:58:50;24.33;;;17.17;;
61677;SDS011;47575;52.054;4.334;2022-07-01T02:01:18;24.93;;;17.17;;
61677;SDS011;47575;52.054;4.334;2022-07-01T02:03:46;22.77;;;15.80;;
61677;SDS011;47575;52.054;4.334;2022-07-01T02:06:16;22.77;;;16.57;;
61677;SDS011;47575;52.054;4.334;2022-07-01T02:08:44;23.60;;;16.57;;
61677;SDS011;47575;52.054;4.334;2022-07-01T02:11:11;24.67;;;15.57;;
61677;SDS011;47575;52.054;4.334;2022-07-01T02:13:40;24.40;;;15.47;;
61677;SDS011;47575;52.054;4.334;2022-07-01T02:16:07;23.10;;;16.40;;
61677;SDS011;47575;52.054;4.334;2022-07-01T02:18:35;23.37;;;15.63;;
61677;SDS011;47575;52.054;4.334;2022-07-01T02:21:02;22.00;;;15.80;;
61677;SDS011;47575;52.054;4.334;2022-07-01T02:23:29;23.00;;;15.03;;
61677;SDS011;47575;52.054;4.334;2022-07-01T02:25:56;25.97;;;15.50;;
61677;SDS011;47575;52.054;4.334;2022-07-01T02:28:24;21.60;;;15.03;;
61677;SDS011;47575;52.054;4.334;2022-07-01T02:30:52;22.87;;;15.47;;
61677;SDS011;47575;52.054;4.334;2022-07-01T02:33:20;23.77;;;15.13;;
61677;SDS011;47575;52.054;4.334;2022-07-01T02:35:47;25.07;;;15.57;;
61677;SDS011;47575;52.054;4.334;2022-07-01T02:38:15;21.40;;;14.63;;
61677;SDS011;47575;52.054;4.334;2022-07-01T02:40:42;24.47;;;14.67;;
61677;SDS011;47575;52.054;4.334;2022-07-01T02:43:10;20.33;;;13.63;;
61677;SDS011;47575;52.054;4.334;2022-07-01T02:45:37;25.27;;;13.97;;
61677;SDS011;47575;52.054;4.334;2022-07-01T02:48:07;21.00;;;13.30;;
61677;SDS011;47575;52.054;4.334;2022-07-01T02:50:34;19.30;;;12.73;;
61677;SDS011;47575;52.054;4.334;2022-07-01T02:53:01;21.37;;;13.97;;
61677;SDS011;47575;52.054;4.334;2022-07-01T02:55:28;18.20;;;13.50;;
61677;SDS011;47575;52.054;4.334;2022-07-01T02:57:56;16.97;;;12.77;;
61677;SDS011;47575;52.054;4.334;2022-07-01T03:00:24;21.10;;;12.20;;
61677;SDS011;47575;52.054;4.334;2022-07-01T03:02:51;18.77;;;12.40;;
61677;SDS011;47575;52.054;4.334;2022-07-01T03:05:20;20.00;;;12.73;;
61677;SDS011;47575;52.054;4.334;2022-07-01T03:07:47;21.30;;;12.97;;
61677;SDS011;47575;52.054;4.334;2022-07-01T03:10:14;22.17;;;13.07;;
61677;SDS011;47575;52.054;4.334;2022-07-01T03:12:42;20.07;;;13.30;;
61677;SDS011;47575;52.054;4.334;2022-07-01T03:15:10;18.87;;;13.07;;
61677;SDS011;47575;52.054;4.334;2022-07-01T03:17:39;18.37;;;12.87;;
61677;SDS011;47575;52.054;4.334;2022-07-01T03:20:07;22.00;;;13.57;;
61677;SDS011;47575;52.054;4.334;2022-07-01T03:22:38;19.30;;;13.50;;
61677;SDS011;47575;52.054;4.334;2022-07-01T03:25:06;22.47;;;13.50;;
61677;SDS011;47575;52.054;4.334;2022-07-01T03:27:35;22.07;;;13.67;;
61677;SDS011;47575;52.054;4.334;2022-07-01T03:30:04;22.83;;;14.70;;
61677;SDS011;47575;52.054;4.334;2022-07-01T03:32:33;24.73;;;14.33;;
61677;SDS011;47575;52.054;4.334;2022-07-01T03:35:01;22.17;;;14.20;;
61677;SDS011;47575;52.054;4.334;2022-07-01T03:37:50;27.60;;;14.97;;
61677;SDS011;47575;52.054;4.334;2022-07-01T03:40:17;23.47;;;15.47;;
61677;SDS011;47575;52.054;4.334;2022-07-01T03:42:44;20.10;;;14.73;;
61677;SDS011;47575;52.054;4.334;2022-07-01T03:45:11;25.83;;;15.13;;
61677;SDS011;47575;52.054;4.334;2022-07-01T03:47:44;22.70;;;14.93;;
61677;SDS011;47575;52.054;4.334;2022-07-01T03:50:12;27.17;;;15.27;;
61677;SDS011;47575;52.054;4.334;2022-07-01T03:52:39;23.77;;;15.87;;
61677;SDS011;47575;52.054;4.334;2022-07-01T03:55:08;26.17;;;15.77;;
61677;SDS011;47575;52.054;4.334;2022-07-01T03:57:34;22.57;;;16.00;;
61677;SDS011;47575;52.054;4.334;2022-07-01T04:00:02;24.70;;;16.20;;
61677;SDS011;47575;52.054;4.334;2022-07-01T04:02:30;23.57;;;17.07;;
61677;SDS011;47575;52.054;4.334;2022-07-01T04:04:58;24.77;;;15.80;;
61677;SDS011;47575;52.054;4.334;2022-07-01T04:07:25;25.40;;;16.00;;
61677;SDS011;47575;52.054;4.334;2022-07-01T04:09:53;26.77;;;16.63;;
61677;SDS011;47575;52.054;4.334;2022-07-01T04:12:22;23.03;;;14.63;;
61677;SDS011;47575;52.054;4.334;2022-07-01T04:14:49;27.67;;;16.23;;
61677;SDS011;47575;52.054;4.334;2022-07-01T04:17:16;24.83;;;15.07;;
61677;SDS011;47575;52.054;4.334;2022-07-01T04:19:43;23.77;;;15.70;;
61677;SDS011;47575;52.054;4.334;2022-07-01T04:22:11;22.03;;;15.33;;
61677;SDS011;47575;52.054;4.334;2022-07-01T04:24:56;26.00;;;15.53;;
61677;SDS011;47575;52.054;4.334;2022-07-01T04:27:24;24.90;;;14.37;;
61677;SDS011;47575;52.054;4.334;2022-07-01T04:29:51;22.93;;;14.23;;
61677;SDS011;47575;52.054;4.334;2022-07-01T04:32:19;22.47;;;14.20;;
61677;SDS011;47575;52.054;4.334;2022-07-01T04:34:46;23.57;;;14.53;;
61677;SDS011;47575;52.054;4.334;2022-07-01T04:37:13;25.53;;;15.10;;
61677;SDS011;47575;52.054;4.334;2022-07-01T04:39:40;26.57;;;13.73;;
61677;SDS011;47575;52.054;4.334;2022-07-01T04:42:07;17.37;;;12.73;;
61677;SDS011;47575;52.054;4.334;2022-07-01T04:44:36;23.93;;;13.50;;
61677;SDS011;47575;52.054;4.334;2022-07-01T04:47:04;22.37;;;12.70;;
61677;SDS011;47575;52.054;4.334;2022-07-01T04:49:31;22.67;;;12.50;;
61677;SDS011;47575;52.054;4.334;2022-07-01T04:51:59;19.73;;;12.60;;
61677;SDS011;47575;52.054;4.334;2022-07-01T04:54:26;22.83;;;11.93;;
61677;SDS011;47575;52.054;4.334;2022-07-01T04:56:54;19.10;;;12.03;;
61677;SDS011;47575;52.054;4.334;2022-07-01T04:59:21;18.27;;;11.70;;
61677;SDS011;47575;52.054;4.334;2022-07-01T05:01:50;22.43;;;11.90;;
61677;SDS011;47575;52.054;4.334;2022-07-01T05:04:17;20.27;;;11.67;;
61677;SDS011;47575;52.054;4.334;2022-07-01T05:06:45;18.30;;;11.33;;
61677;SDS011;47575;52.054;4.334;2022-07-01T05:09:13;21.73;;;11.60;;
61677;SDS011;47575;52.054;4.334;2022-07-01T05:11:40;21.47;;;11.20;;
61677;SDS011;47575;52.054;4.334;2022-07-01T05:14:07;20.83;;;10.67;;
61677;SDS011;47575;52.054;4.334;2022-07-01T05:16:35;18.80;;;10.73;;
61677;SDS011;47575;52.054;4.334;2022-07-01T05:19:04;16.77;;;9.40;;
61677;SDS011;47575;52.054;4.334;2022-07-01T05:21:49;18.13;;;9.67;;
61677;SDS011;47575;52.054;4.334;2022-07-01T05:24:26;16.53;;;8.93;;
61677;SDS011;47575;52.054;4.334;2022-07-01T05:26:56;19.70;;;8.40;;
61677;SDS011;47575;52.054;4.334;2022-07-01T05:29:23;15.20;;;7.80;;
61677;SDS011;47575;52.054;4.334;2022-07-01T05:31:51;15.48;;;7.32;;
61677;SDS011;47575;52.054;4.334;2022-07-01T05:34:19;15.88;;;7.18;;
61677;SDS011;47575;52.054;4.334;2022-07-01T05:36:46;13.05;;;7.15;;
61677;SDS011;47575;52.054;4.334;2022-07-01T05:39:14;16.08;;;7.28;;
61677;SDS011;47575;52.054;4.334;2022-07-01T05:41:41;12.98;;;6.10;;
61677;SDS011;47575;52.054;4.334;2022-07-01T05:44:08;14.13;;;6.15;;
61677;SDS011;47575;52.054;4.334;2022-07-01T05:46:35;13.23;;;5.70;;
61677;SDS011;47575;52.054;4.334;2022-07-01T05:49:03;14.82;;;6.40;;
61677;SDS011;47575;52.054;4.334;2022-07-01T05:51:32;16.00;;;5.97;;
61677;SDS011;47575;52.054;4.334;2022-07-01T05:53:59;16.55;;;6.55;;
61677;SDS011;47575;52.054;4.334;2022-07-01T05:56:26;18.58;;;7.55;;
61677;SDS011;47575;52.054;4.334;2022-07-01T05:58:54;19.20;;;6.53;;
61677;SDS011;47575;52.054;4.334;2022-07-01T06:01:21;16.13;;;7.07;;
61677;SDS011;47575;52.054;4.334;2022-07-01T06:03:49;13.73;;;6.78;;
61677;SDS011;47575;52.054;4.334;2022-07-01T06:06:16;16.23;;;6.10;;
61677;SDS011;47575;52.054;4.334;2022-07-01T06:08:46;16.60;;;6.50;;
61677;SDS011;47575;52.054;4.334;2022-07-01T06:11:14;12.75;;;5.90;;
61677;SDS011;47575;52.054;4.334;2022-07-01T06:13:41;17.23;;;5.80;;
61677;SDS011;47575;52.054;4.334;2022-07-01T06:16:09;13.07;;;5.68;;
61677;SDS011;47575;52.054;4.334;2022-07-01T06:18:36;13.35;;;5.55;;
61677;SDS011;47575;52.054;4.334;2022-07-01T06:21:04;16.08;;;6.18;;
61677;SDS011;47575;52.054;4.334;2022-07-01T06:23:31;13.93;;;5.80;;
61677;SDS011;47575;52.054;4.334;2022-07-01T06:26:00;15.40;;;5.35;;
61677;SDS011;47575;52.054;4.334;2022-07-01T06:28:27;12.65;;;4.82;;
61677;SDS011;47575;52.054;4.334;2022-07-01T06:30:56;13.63;;;4.47;;
61677;SDS011;47575;52.054;4.334;2022-07-01T06:33:24;15.45;;;4.10;;
61677;SDS011;47575;52.054;4.334;2022-07-01T06:35:55;11.02;;;3.80;;
61677;SDS011;47575;52.054;4.334;2022-07-01T06:38:22;10.93;;;3.55;;
61677;SDS011;47575;52.054;4.334;2022-07-01T06:40:50;16.42;;;3.85;;
61677;SDS011;47575;52.054;4.334;2022-07-01T06:43:33;10.18;;;4.22;;
61677;SDS011;47575;52.054;4.334;2022-07-01T06:46:00;16.42;;;4.50;;
61677;SDS011;47575;52.054;4.334;2022-07-01T06:48:27;12.43;;;4.80;;
61677;SDS011;47575;52.054;4.334;2022-07-01T06:50:55;10.80;;;3.88;;
61677;SDS011;47575;52.054;4.334;2022-07-01T06:53:22;14.70;;;3.85;;
61677;SDS011;47575;52.054;4.334;2022-07-01T06:55:49;13.40;;;3.88;;
61677;SDS011;47575;52.054;4.334;2022-07-01T06:58:17;13.23;;;3.15;;
61677;SDS011;47575;52.054;4.334;2022-07-01T07:00:45;12.57;;;3.45;;
61677;SDS011;47575;52.054;4.334;2022-07-01T07:03:13;12.38;;;3.67;;
61677;SDS011;47575;52.054;4.334;2022-07-01T07:05:41;14.05;;;3.60;;
61677;SDS011;47575;52.054;4.334;2022-07-01T07:08:08;10.90;;;3.80;;
61677;SDS011;47575;52.054;4.334;2022-07-01T07:10:35;10.43;;;3.17;;
61677;SDS011;47575;52.054;4.334;2022-07-01T07:13:03;10.93;;;3.45;;
61677;SDS011;47575;52.054;4.334;2022-07-01T07:15:30;37.92;;;6.32;;
61677;SDS011;47575;52.054;4.334;2022-07-01T07:17:59;10.13;;;3.20;;
61677;SDS011;47575;52.054;4.334;2022-07-01T07:20:26;11.85;;;3.10;;
61677;SDS011;47575;52.054;4.334;2022-07-01T07:22:54;9.13;;;2.83;;
61677;SDS011;47575;52.054;4.334;2022-07-01T07:25:21;11.50;;;2.60;;
61677;SDS011;47575;52.054;4.334;2022-07-01T07:27:48;11.77;;;2.58;;
61677;SDS011;47575;52.054;4.334;2022-07-01T07:30:16;9.27;;;2.30;;
61677;SDS011;47575;52.054;4.334;2022-07-01T07:32:44;10.95;;;2.00;;
61677;SDS011;47575;52.054;4.334;2022-07-01T07:35:13;10.20;;;2.17;;
61677;SDS011;47575;52.054;4.334;2022-07-01T07:37:41;9.25;;;2.58;;
61677;SDS011;47575;52.054;4.334;2022-07-01T07:40:09;13.40;;;3.20;;
61677;SDS011;47575;52.054;4.334;2022-07-01T07:42:38;13.25;;;3.20;;
61677;SDS011;47575;52.054;4.334;2022-07-01T07:45:06;12.05;;;3.65;;
61677;SDS011;47575;52.054;4.334;2022-07-01T07:47:34;12.63;;;3.30;;
61677;SDS011;47575;52.054;4.334;2022-07-01T07:50:02;188.52;;;14.52;;
61677;SDS011;47575;52.054;4.334;2022-07-01T07:52:31;13.60;;;3.83;;
61677;SDS011;47575;52.054;4.334;2022-07-01T07:54:59;12.50;;;3.55;;
61677;SDS011;47575;52.054;4.334;2022-07-01T07:57:26;14.10;;;3.97;;
61677;SDS011;47575;52.054;4.334;2022-07-01T07:59:53;11.85;;;3.65;;
61677;SDS011;47575;52.054;4.334;2022-07-01T08:02:21;12.48;;;3.47;;
61677;SDS011;47575;52.054;4.334;2022-07-01T08:04:49;12.48;;;3.25;;
61677;SDS011;47575;52.054;4.334;2022-07-01T08:07:16;10.52;;;2.90;;
61677;SDS011;47575;52.054;4.334;2022-07-01T08:09:45;12.02;;;3.03;;
61677;SDS011;47575;52.054;4.334;2022-07-01T08:12:15;10.80;;;3.25;;
61677;SDS011;47575;52.054;4.334;2022-07-01T08:14:42;7.63;;;2.35;;
61677;SDS011;47575;52.054;4.334;2022-07-01T08:17:10;13.43;;;2.72;;
61677;SDS011;47575;52.054;4.334;2022-07-01T08:19:38;10.63;;;2.25;;
61677;SDS011;47575;52.054;4.334;2022-07-01T08:22:05;10.73;;;2.22;;
61677;SDS011;47575;52.054;4.334;2022-07-01T08:24:33;9.95;;;2.10;;
61677;SDS011;47575;52.054;4.334;2022-07-01T08:27:01;10.60;;;2.20;;
61677;SDS011;47575;52.054;4.334;2022-07-01T08:29:29;7.15;;;1.42;;
61677;SDS011;47575;52.054;4.334;2022-07-01T08:31:56;7.32;;;1.73;;
61677;SDS011;47575;52.054;4.334;2022-07-01T08:34:23;11.90;;;1.85;;
61677;SDS011;47575;52.054;4.334;2022-07-01T08:36:51;9.85;;;1.92;;
61677;SDS011;47575;52.054;4.334;2022-07-01T08:39:18;7.28;;;1.60;;
61677;SDS011;47575;52.054;4.334;2022-07-01T08:41:45;8.43;;;1.50;;
61677;SDS011;47575;52.054;4.334;2022-07-01T08:44:15;8.48;;;2.00;;
61677;SDS011;47575;52.054;4.334;2022-07-01T08:46:42;10.05;;;2.08;;
61677;SDS011;47575;52.054;4.334;2022-07-01T08:49:10;9.63;;;1.95;;
61677;SDS011;47575;52.054;4.334;2022-07-01T08:51:39;10.45;;;1.90;;
61677;SDS011;47575;52.054;4.334;2022-07-01T08:54:07;11.02;;;2.05;;
61677;SDS011;47575;52.054;4.334;2022-07-01T08:56:34;11.07;;;2.20;;
61677;SDS011;47575;52.054;4.334;2022-07-01T08:59:11;9.02;;;1.65;;
61677;SDS011;47575;52.054;4.334;2022-07-01T09:01:41;7.55;;;1.50;;
61677;SDS011;47575;52.054;4.334;2022-07-01T09:04:12;7.35;;;1.30;;
61677;SDS011;47575;52.054;4.334;2022-07-01T09:06:41;5.70;;;0.90;;
61677;SDS011;47575;52.054;4.334;2022-07-01T09:09:10;6.55;;;1.02;;
61677;SDS011;47575;52.054;4.334;2022-07-01T09:11:43;5.57;;;0.90;;
61677;SDS011;47575;52.054;4.334;2022-07-01T09:14:12;6.85;;;1.25;;
61677;SDS011;47575;52.054;4.334;2022-07-01T09:16:44;6.07;;;1.35;;
61677;SDS011;47575;52.054;4.334;2022-07-01T09:19:12;5.63;;;1.30;;
61677;SDS011;47575;52.054;4.334;2022-07-01T09:21:41;5.13;;;0.80;;
61677;SDS011;47575;52.054;4.334;2022-07-01T09:24:22;6.93;;;1.23;;
61677;SDS011;47575;52.054;4.334;2022-07-01T09:26:52;5.43;;;1.00;;
61677;SDS011;47575;52.054;4.334;2022-07-01T09:29:20;7.57;;;1.10;;
61677;SDS011;47575;52.054;4.334;2022-07-01T09:34:21;7.90;;;1.55;;
61677;SDS011;47575;52.054;4.334;2022-07-01T09:36:51;7.03;;;1.13;;
61677;SDS011;47575;52.054;4.334;2022-07-01T09:39:19;7.80;;;1.38;;
61677;SDS011;47575;52.054;4.334;2022-07-01T09:41:47;6.53;;;1.40;;
61677;SDS011;47575;52.054;4.334;2022-07-01T09:44:14;11.70;;;1.85;;
61677;SDS011;47575;52.054;4.334;2022-07-01T09:46:51;8.10;;;2.00;;
61677;SDS011;47575;52.054;4.334;2022-07-01T09:49:20;9.13;;;1.67;;
61677;SDS011;47575;52.054;4.334;2022-07-01T09:51:48;8.48;;;1.70;;
61677;SDS011;47575;52.054;4.334;2022-07-01T09:54:17;8.00;;;1.88;;
61677;SDS011;47575;52.054;4.334;2022-07-01T09:56:45;9.93;;;2.15;;
61677;SDS011;47575;52.054;4.334;2022-07-01T09:59:12;12.05;;;1.98;;
61677;SDS011;47575;52.054;4.334;2022-07-01T10:01:39;8.18;;;1.60;;
61677;SDS011;47575;52.054;4.334;2022-07-01T10:04:12;8.80;;;1.70;;
61677;SDS011;47575;52.054;4.334;2022-07-01T10:06:54;7.15;;;1.50;;
61677;SDS011;47575;52.054;4.334;2022-07-01T10:09:51;9.80;;;1.85;;
61677;SDS011;47575;52.054;4.334;2022-07-01T10:15:08;10.52;;;2.10;;
61677;SDS011;47575;52.054;4.334;2022-07-01T10:17:37;9.27;;;1.95;;
61677;SDS011;47575;52.054;4.334;2022-07-01T10:20:11;7.72;;;1.60;;
61677;SDS011;47575;52.054;4.334;2022-07-01T10:22:40;9.68;;;1.88;;
61677;SDS011;47575;52.054;4.334;2022-07-01T10:28:12;8.70;;;1.92;;
61677;SDS011;47575;52.054;4.334;2022-07-01T10:30:51;7.80;;;1.67;;
61677;SDS011;47575;52.054;4.334;2022-07-01T10:33:33;9.13;;;1.77;;
61677;SDS011;47575;52.054;4.334;2022-07-01T10:36:12;12.90;;;1.95;;
61677;SDS011;47575;52.054;4.334;2022-07-01T10:41:36;11.05;;;1.75;;
61677;SDS011;47575;52.054;4.334;2022-07-01T10:44:06;8.65;;;1.75;;
61677;SDS011;47575;52.054;4.334;2022-07-01T10:46:37;8.93;;;1.70;;
61677;SDS011;47575;52.054;4.334;2022-07-01T10:49:06;9.45;;;1.40;;
61677;SDS011;47575;52.054;4.334;2022-07-01T10:51:49;7.75;;;1.55;;
61677;SDS011;47575;52.054;4.334;2022-07-01T10:57:18;6.80;;;1.33;;
61677;SDS011;47575;52.054;4.334;2022-07-01T11:05:50;5.97;;;1.20;;
61677;SDS011;47575;52.054;4.334;2022-07-01T11:08:22;7.53;;;1.65;;
61677;SDS011;47575;52.054;4.334;2022-07-01T11:10:50;8.85;;;1.65;;
61677;SDS011;47575;52.054;4.334;2022-07-01T11:13:21;6.65;;;1.50;;
61677;SDS011;47575;52.054;4.334;2022-07-01T11:15:48;9.05;;;1.30;;
61677;SDS011;47575;52.054;4.334;2022-07-01T11:18:16;9.50;;;1.42;;
61677;SDS011;47575;52.054;4.334;2022-07-01T11:20:45;12.98;;;1.42;;
61677;SDS011;47575;52.054;4.334;2022-07-01T11:23:12;7.57;;;1.40;;
61677;SDS011;47575;52.054;4.334;2022-07-01T11:25:43;6.10;;;1.20;;
61677;SDS011;47575;52.054;4.334;2022-07-01T11:28:11;7.90;;;1.30;;
61677;SDS011;47575;52.054;4.334;2022-07-01T11:30:39;8.45;;;1.23;;
61677;SDS011;47575;52.054;4.334;2022-07-01T11:33:07;7.50;;;1.30;;
61677;SDS011;47575;52.054;4.334;2022-07-01T11:35:35;7.22;;;1.30;;
61677;SDS011;47575;52.054;4.334;2022-07-01T11:38:20;6.40;;;0.90;;
61677;SDS011;47575;52.054;4.334;2022-07-01T11:41:07;3.88;;;0.70;;
61677;SDS011;47575;52.054;4.334;2022-07-01T11:43:37;3.80;;;0.65;;
61677;SDS011;47575;52.054;4.334;2022-07-01T11:46:06;6.18;;;0.80;;
61677;SDS011;47575;52.054;4.334;2022-07-01T11:48:36;5.60;;;0.98;;
61677;SDS011;47575;52.054;4.334;2022-07-01T11:51:06;8.20;;;0.93;;
61677;SDS011;47575;52.054;4.334;2022-07-01T11:53:36;5.10;;;0.80;;
61677;SDS011;47575;52.054;4.334;2022-07-01T11:56:03;7.70;;;1.15;;
61677;SDS011;47575;52.054;4.334;2022-07-01T11:58:47;6.07;;;1.20;;
61677;SDS011;47575;52.054;4.334;2022-07-01T12:01:26;4.95;;;0.80;;
61677;SDS011;47575;52.054;4.334;2022-07-01T12:03:56;5.30;;;0.85;;
61677;SDS011;47575;52.054;4.334;2022-07-01T12:06:25;9.23;;;1.30;;
61677;SDS011;47575;52.054;4.334;2022-07-01T12:08:53;5.93;;;0.82;;
61677;SDS011;47575;52.054;4.334;2022-07-01T12:11:22;5.15;;;0.70;;
61677;SDS011;47575;52.054;4.334;2022-07-01T12:13:53;6.60;;;0.98;;
61677;SDS011;47575;52.054;4.334;2022-07-01T12:16:22;5.13;;;1.00;;
61677;SDS011;47575;52.054;4.334;2022-07-01T12:18:50;5.15;;;1.00;;
61677;SDS011;47575;52.054;4.334;2022-07-01T12:21:18;8.00;;;1.05;;
61677;SDS011;47575;52.054;4.334;2022-07-01T12:26:35;3.92;;;0.90;;
61677;SDS011;47575;52.054;4.334;2022-07-01T12:29:16;5.57;;;0.90;;
61677;SDS011;47575;52.054;4.334;2022-07-01T12:31:53;6.25;;;1.27;;
61677;SDS011;47575;52.054;4.334;2022-07-01T12:34:22;8.68;;;1.38;;
61677;SDS011;47575;52.054;4.334;2022-07-01T12:36:50;5.15;;;0.90;;
61677;SDS011;47575;52.054;4.334;2022-07-01T12:39:17;7.20;;;0.93;;
61677;SDS011;47575;52.054;4.334;2022-07-01T12:41:48;4.38;;;0.93;;
61677;SDS011;47575;52.054;4.334;2022-07-01T12:44:21;5.65;;;1.13;;
61677;SDS011;47575;52.054;4.334;2022-07-01T12:46:50;6.80;;;1.05;;
61677;SDS011;47575;52.054;4.334;2022-07-01T12:49:18;7.00;;;1.20;;
61677;SDS011;47575;52.054;4.334;2022-07-01T12:51:46;7.63;;;1.23;;
61677;SDS011;47575;52.054;4.334;2022-07-01T12:54:27;8.20;;;1.13;;
61677;SDS011;47575;52.054;4.334;2022-07-01T12:56:56;5.37;;;0.90;;
61677;SDS011;47575;52.054;4.334;2022-07-01T12:59:24;6.68;;;1.42;;
61677;SDS011;47575;52.054;4.334;2022-07-01T13:01:52;4.53;;;1.08;;
61677;SDS011;47575;52.054;4.334;2022-07-01T13:04:23;5.85;;;1.23;;
61677;SDS011;47575;52.054;4.334;2022-07-01T13:06:51;7.85;;;1.40;;
61677;SDS011;47575;52.054;4.334;2022-07-01T13:09:19;7.50;;;1.75;;
61677;SDS011;47575;52.054;4.334;2022-07-01T13:11:46;7.10;;;1.48;;
61677;SDS011;47575;52.054;4.334;2022-07-01T13:14:14;8.05;;;1.55;;
61677;SDS011;47575;52.054;4.334;2022-07-01T13:16:42;7.22;;;1.33;;
61677;SDS011;47575;52.054;4.334;2022-07-01T13:19:10;4.72;;;1.10;;
61677;SDS011;47575;52.054;4.334;2022-07-01T13:21:37;7.28;;;1.02;;
61677;SDS011;47575;52.054;4.334;2022-07-01T13:24:04;5.95;;;0.98;;
61677;SDS011;47575;52.054;4.334;2022-07-01T13:26:32;6.43;;;1.00;;
61677;SDS011;47575;52.054;4.334;2022-07-01T13:28:59;4.13;;;0.80;;
61677;SDS011;47575;52.054;4.334;2022-07-01T13:31:26;4.53;;;0.80;;
61677;SDS011;47575;52.054;4.334;2022-07-01T13:33:55;4.10;;;0.70;;
61677;SDS011;47575;52.054;4.334;2022-07-01T13:36:22;5.07;;;0.65;;
61677;SDS011;47575;52.054;4.334;2022-07-01T13:38:49;4.22;;;0.88;;
61677;SDS011;47575;52.054;4.334;2022-07-01T13:41:16;4.20;;;0.80;;
61677;SDS011;47575;52.054;4.334;2022-07-01T13:43:47;5.45;;;0.65;;
61677;SDS011;47575;52.054;4.334;2022-07-01T13:46:14;4.40;;;0.65;;
61677;SDS011;47575;52.054;4.334;2022-07-01T13:48:41;3.45;;;0.60;;
61677;SDS011;47575;52.054;4.334;2022-07-01T13:51:10;4.25;;;0.65;;
61677;SDS011;47575;52.054;4.334;2022-07-01T13:53:37;3.58;;;0.80;;
61677;SDS011;47575;52.054;4.334;2022-07-01T13:56:05;3.72;;;0.70;;
61677;SDS011;47575;52.054;4.334;2022-07-01T13:58:32;6.53;;;0.90;;
61677;SDS011;47575;52.054;4.334;2022-07-01T14:00:59;2.47;;;0.60;;
61677;SDS011;47575;52.054;4.334;2022-07-01T14:03:27;4.40;;;0.70;;
61677;SDS011;47575;52.054;4.334;2022-07-01T14:05:54;4.32;;;0.88;;
61677;SDS011;47575;52.054;4.334;2022-07-01T14:08:23;6.82;;;0.90;;
61677;SDS011;47575;52.054;4.334;2022-07-01T14:10:52;4.47;;;0.73;;
61677;SDS011;47575;52.054;4.334;2022-07-01T14:13:20;5.15;;;0.70;;
61677;SDS011;47575;52.054;4.334;2022-07-01T14:15:48;5.43;;;0.70;;
61677;SDS011;47575;52.054;4.334;2022-07-01T14:18:15;4.40;;;0.75;;
61677;SDS011;47575;52.054;4.334;2022-07-01T14:20:43;5.05;;;0.80;;
61677;SDS011;47575;52.054;4.334;2022-07-01T14:23:10;3.15;;;0.60;;
61677;SDS011;47575;52.054;4.334;2022-07-01T14:25:38;5.97;;;1.00;;
61677;SDS011;47575;52.054;4.334;2022-07-01T14:28:07;3.00;;;0.70;;
61677;SDS011;47575;52.054;4.334;2022-07-01T14:30:35;4.45;;;0.80;;
61677;SDS011;47575;52.054;4.334;2022-07-01T14:33:02;4.57;;;0.70;;
61677;SDS011;47575;52.054;4.334;2022-07-01T14:35:29;3.22;;;0.70;;
61677;SDS011;47575;52.054;4.334;2022-07-01T14:37:57;2.95;;;0.60;;
61677;SDS011;47575;52.054;4.334;2022-07-01T14:40:25;3.95;;;0.80;;
61677;SDS011;47575;52.054;4.334;2022-07-01T14:42:53;6.15;;;0.90;;
61677;SDS011;47575;52.054;4.334;2022-07-01T14:45:20;5.50;;;0.95;;
61677;SDS011;47575;52.054;4.334;2022-07-01T14:47:48;3.75;;;0.60;;
61677;SDS011;47575;52.054;4.334;2022-07-01T14:50:15;4.00;;;0.60;;
61677;SDS011;47575;52.054;4.334;2022-07-01T14:52:42;2.83;;;0.63;;
61677;SDS011;47575;52.054;4.334;2022-07-01T14:55:10;3.30;;;0.68;;
61677;SDS011;47575;52.054;4.334;2022-07-01T14:57:37;5.45;;;0.80;;
61677;SDS011;47575;52.054;4.334;2022-07-01T15:00:06;3.08;;;0.60;;
61677;SDS011;47575;52.054;4.334;2022-07-01T15:02:34;5.60;;;0.98;;
61677;SDS011;47575;52.054;4.334;2022-07-01T15:05:03;3.33;;;0.77;;
61677;SDS011;47575;52.054;4.334;2022-07-01T15:07:31;5.78;;;0.75;;